Time;durP1;ratioP1;P1;durP2;ratioP2;P2;SDS_P1;SDS_P2;PMS_P1;PMS_P2;Temp;Humidity;BMP_temperature;BMP_pressure;BME280_temperature;BME280_humidity;BME280_pressure;Samples;Min_cycle;Max_cycle;Signal;HPM_P1;HPM_P2
2024/01/16 00:02:24;;;;;;;21.67;15.57;;;0.40;99.90;;;;;;5119130;28;20458;-67
2024/01/16 00:04:51;;;;;;;17.67;13.23;;;0.40;99.90;;;;;;5119325;28;20469;-67
2024/01/16 00:07:20;;;;;;;20.03;13.57;;;0.40;99.90;;;;;;5119375;28;20437;-67
2024/01/16 00:09:48;;;;;;;18.73;13.03;;;0.40;99.90;;;;;;5119460;28;20973;-67
2024/01/16 00:12:15;;;;;;;16.77;12.00;;;0.40;99.90;;;;;;5119263;28;20462;-67
2024/01/16 00:14:42;;;;;;;16.03;12.47;;;0.40;99.90;;;;;;5118656;28;20485;-66
2024/01/16 00:17:10;;;;;;;17.17;13.33;;;0.40;99.90;;;;;;5118990;28;20489;-67
2024/01/16 00:19:38;;;;;;;13.70;10.70;;;0.40;99.90;;;;;;5119111;28;20455;-66
2024/01/16 00:22:06;;;;;;;20.73;12.40;;;0.30;99.90;;;;;;5119116;28;20771;-67
2024/01/16 00:24:33;;;;;;;16.70;10.83;;;0.30;99.90;;;;;;5119158;28;20725;-67
2024/01/16 00:27:00;;;;;;;12.97;9.67;;;0.30;99.90;;;;;;5118929;28;20769;-67
2024/01/16 00:29:27;;;;;;;15.37;11.87;;;0.30;99.90;;;;;;5118592;28;20485;-67
2024/01/16 00:31:55;;;;;;;16.13;11.00;;;0.30;99.90;;;;;;5118823;27;20895;-67
2024/01/16 00:34:22;;;;;;;17.60;11.13;;;0.30;99.90;;;;;;5118653;28;20495;-67
2024/01/16 00:36:51;;;;;;;18.50;12.03;;;0.30;99.90;;;;;;5118168;28;20565;-67
2024/01/16 00:39:18;;;;;;;22.13;12.20;;;0.30;99.90;;;;;;5118594;28;20458;-67
2024/01/16 00:41:45;;;;;;;21.20;12.80;;;0.30;99.90;;;;;;5118719;28;20433;-67
2024/01/16 00:44:13;;;;;;;16.97;13.50;;;0.30;99.90;;;;;;5118291;28;20437;-67
2024/01/16 00:46:41;;;;;;;17.13;12.77;;;0.30;99.90;;;;;;5118280;28;20454;-67
2024/01/16 00:49:09;;;;;;;17.10;12.90;;;0.30;99.90;;;;;;5118733;28;20513;-67
2024/01/16 00:51:36;;;;;;;16.43;12.23;;;0.30;99.90;;;;;;5118789;28;20517;-67
2024/01/16 00:54:06;;;;;;;15.60;10.93;;;0.30;99.90;;;;;;5118429;28;20927;-67
2024/01/16 00:56:34;;;;;;;20.50;12.13;;;0.30;99.90;;;;;;5118022;28;20590;-67
2024/01/16 00:59:01;;;;;;;16.00;11.40;;;0.20;99.90;;;;;;5117851;28;20494;-67
2024/01/16 01:01:28;;;;;;;13.13;10.87;;;0.30;99.90;;;;;;5117771;28;20512;-66
2024/01/16 01:03:56;;;;;;;12.50;9.80;;;0.30;99.90;;;;;;5118023;28;20520;-67
2024/01/16 01:06:23;;;;;;;14.77;10.20;;;0.30;99.90;;;;;;5118131;28;20892;-67
2024/01/16 01:08:51;;;;;;;11.83;9.73;;;0.30;99.90;;;;;;5117818;28;20486;-67
2024/01/16 01:11:19;;;;;;;13.03;8.57;;;0.30;99.90;;;;;;5118179;28;20444;-67
2024/01/16 01:13:46;;;;;;;12.17;8.23;;;0.30;99.90;;;;;;5118144;28;20549;-67
2024/01/16 01:16:14;;;;;;;15.63;7.80;;;0.30;99.90;;;;;;5118029;28;20494;-66
2024/01/16 01:18:41;;;;;;;15.37;10.30;;;0.30;99.90;;;;;;5117956;28;20929;-67
2024/01/16 01:21:08;;;;;;;11.23;8.83;;;0.30;99.90;;;;;;5117520;28;20455;-67
2024/01/16 01:23:36;;;;;;;10.67;7.43;;;0.30;99.90;;;;;;5117539;28;20720;-67
2024/01/16 01:26:04;;;;;;;12.13;9.20;;;0.30;99.90;;;;;;5117683;28;20531;-67
2024/01/16 01:28:33;;;;;;;11.10;8.40;;;0.30;99.90;;;;;;5117859;28;20452;-67
2024/01/16 01:31:00;;;;;;;12.30;8.50;;;0.30;99.90;;;;;;5117603;28;20540;-67
2024/01/16 01:33:27;;;;;;;12.53;7.97;;;0.30;99.90;;;;;;5117798;28;20494;-67
2024/01/16 01:35:54;;;;;;;11.73;8.70;;;0.40;99.90;;;;;;5117906;28;20455;-68
2024/01/16 01:38:22;;;;;;;9.40;6.37;;;0.30;99.90;;;;;;5117481;28;20524;-68
2024/01/16 01:40:49;;;;;;;10.77;7.50;;;0.30;99.90;;;;;;5117632;28;20458;-67
2024/01/16 01:43:20;;;;;;;8.93;6.43;;;0.30;99.90;;;;;;5117810;28;20944;-68
2024/01/16 01:46:03;;;;;;;11.50;7.93;;;0.30;99.90;;;;;;5117959;28;20494;-68
2024/01/16 01:48:31;;;;;;;18.10;7.97;;;0.40;99.90;;;;;;5117996;28;20437;-67
2024/01/16 01:50:59;;;;;;;11.77;8.07;;;0.40;99.90;;;;;;5117580;28;20469;-68
2024/01/16 01:53:27;;;;;;;16.80;9.37;;;0.40;99.90;;;;;;5118012;28;20469;-68
2024/01/16 01:55:55;;;;;;;9.90;8.27;;;0.30;99.90;;;;;;5117314;28;20914;-68
2024/01/16 01:58:23;;;;;;;10.90;9.13;;;0.30;99.90;;;;;;5117328;28;20536;-68
2024/01/16 02:00:52;;;;;;;11.20;8.77;;;0.30;99.90;;;;;;5117229;28;20554;-67
2024/01/16 02:03:20;;;;;;;14.93;9.67;;;0.40;99.90;;;;;;5117131;28;20800;-67
2024/01/16 02:05:47;;;;;;;15.63;9.20;;;0.30;99.90;;;;;;5117578;28;20455;-68
2024/01/16 02:08:15;;;;;;;14.17;10.30;;;0.30;99.90;;;;;;5117190;28;20490;-67
2024/01/16 02:10:46;;;;;;;11.50;9.70;;;0.30;99.90;;;;;;5117882;28;20460;-67
2024/01/16 02:13:14;;;;;;;15.27;10.10;;;0.30;99.90;;;;;;5122002;28;20462;-68
2024/01/16 02:15:42;;;;;;;17.13;11.03;;;0.30;99.90;;;;;;5121560;28;20812;-68
2024/01/16 02:18:10;;;;;;;17.07;11.27;;;0.30;99.90;;;;;;5121024;28;20583;-68
2024/01/16 02:20:37;;;;;;;17.70;11.10;;;0.40;99.90;;;;;;5121599;28;20528;-68
2024/01/16 02:23:06;;;;;;;21.83;13.63;;;0.30;99.90;;;;;;5121260;28;20506;-68
2024/01/16 02:25:35;;;;;;;13.83;11.53;;;0.30;99.90;;;;;;5121343;28;20456;-68
2024/01/16 02:28:03;;;;;;;14.93;11.83;;;0.40;99.90;;;;;;5120816;28;20430;-68
2024/01/16 02:30:31;;;;;;;22.80;11.73;;;0.40;99.90;;;;;;5121387;28;20953;-69
2024/01/16 02:32:58;;;;;;;18.50;12.60;;;0.30;99.90;;;;;;5121077;28;20927;-69
2024/01/16 02:35:25;;;;;;;15.03;12.50;;;0.40;99.90;;;;;;5121245;28;20763;-69
2024/01/16 02:37:52;;;;;;;16.63;13.60;;;0.40;99.90;;;;;;5120539;28;20931;-68
2024/01/16 02:40:19;;;;;;;18.80;13.87;;;0.30;99.90;;;;;;5120870;28;20558;-69
2024/01/16 02:42:48;;;;;;;24.07;13.10;;;0.30;99.90;;;;;;5120901;28;20502;-68
2024/01/16 02:45:15;;;;;;;15.87;12.07;;;0.30;99.90;;;;;;5120909;28;20491;-68
2024/01/16 02:47:42;;;;;;;17.73;13.20;;;0.30;99.90;;;;;;5120963;28;20429;-68
2024/01/16 02:50:10;;;;;;;19.67;13.10;;;0.30;99.90;;;;;;5120245;28;20469;-68
2024/01/16 02:52:38;;;;;;;16.00;12.10;;;0.40;99.90;;;;;;5120721;28;20744;-68
2024/01/16 02:55:06;;;;;;;18.77;13.00;;;0.30;99.90;;;;;;5119732;28;20538;-68
2024/01/16 02:57:33;;;;;;;18.27;12.87;;;0.30;99.90;;;;;;5120687;28;20922;-68
2024/01/16 03:00:02;;;;;;;25.50;13.20;;;0.40;99.90;;;;;;5119715;28;20459;-68
2024/01/16 03:02:30;;;;;;;16.73;12.90;;;0.40;99.90;;;;;;5119623;28;20460;-68
2024/01/16 03:04:57;;;;;;;18.23;12.60;;;0.40;99.90;;;;;;5119880;28;20465;-68
2024/01/16 03:07:24;;;;;;;17.87;13.53;;;0.40;99.90;;;;;;5120102;28;20430;-68
2024/01/16 03:09:51;;;;;;;17.27;11.70;;;0.40;99.90;;;;;;5119890;28;20503;-68
2024/01/16 03:12:18;;;;;;;18.33;13.90;;;0.40;99.90;;;;;;5119555;28;20550;-68
2024/01/16 03:14:46;;;;;;;14.93;13.33;;;0.40;99.90;;;;;;5120297;28;20542;-68
2024/01/16 03:17:14;;;;;;;20.67;12.50;;;0.40;99.90;;;;;;5120323;28;20739;-68
2024/01/16 03:19:43;;;;;;;19.07;14.73;;;0.50;99.90;;;;;;5120339;28;20459;-68
2024/01/16 03:22:10;;;;;;;17.57;15.00;;;0.50;99.90;;;;;;5118917;28;20465;-68
2024/01/16 03:24:38;;;;;;;20.13;14.03;;;0.50;99.90;;;;;;5119793;28;20430;-68
2024/01/16 03:27:05;;;;;;;19.87;15.30;;;0.50;99.90;;;;;;5120027;28;20455;-68
2024/01/16 03:29:33;;;;;;;24.10;14.50;;;0.50;99.90;;;;;;5120455;28;20437;-68
2024/01/16 03:32:00;;;;;;;25.20;15.77;;;0.50;99.90;;;;;;5119860;28;20459;-68
2024/01/16 03:34:31;;;;;;;17.80;15.83;;;0.60;99.90;;;;;;5119722;27;20498;-68
2024/01/16 03:36:58;;;;;;;20.60;15.90;;;0.50;99.90;;;;;;5119867;28;21014;-68
2024/01/16 03:39:25;;;;;;;21.70;15.73;;;0.50;99.90;;;;;;5119272;28;20459;-68
2024/01/16 03:41:53;;;;;;;19.30;15.47;;;0.50;99.90;;;;;;5119540;28;20524;-68
2024/01/16 03:44:20;;;;;;;22.10;16.93;;;0.50;99.90;;;;;;5119957;28;20885;-68
2024/01/16 03:46:47;;;;;;;23.53;18.83;;;0.50;99.90;;;;;;5119572;28;20434;-68
2024/01/16 03:49:14;;;;;;;20.60;16.33;;;0.60;99.90;;;;;;5119555;28;20563;-68
2024/01/16 03:51:46;;;;;;;19.77;15.93;;;0.50;99.90;;;;;;5119723;28;20462;-68
2024/01/16 03:54:13;;;;;;;31.50;16.13;;;0.50;99.90;;;;;;5119260;28;20459;-67
2024/01/16 03:56:40;;;;;;;24.77;18.27;;;0.50;99.90;;;;;;5119398;28;20438;-68
2024/01/16 03:59:08;;;;;;;21.57;16.90;;;0.50;99.90;;;;;;5119460;28;20455;-68
2024/01/16 04:01:36;;;;;;;27.03;16.97;;;0.50;99.90;;;;;;5119496;28;20459;-68
2024/01/16 04:04:06;;;;;;;23.70;16.63;;;0.40;99.90;;;;;;5118977;28;20491;-68
2024/01/16 04:06:33;;;;;;;24.17;17.03;;;0.50;99.90;;;;;;5119283;28;20438;-68
2024/01/16 04:09:02;;;;;;;25.73;17.87;;;0.50;99.90;;;;;;5118705;28;20552;-68
2024/01/16 04:11:30;;;;;;;26.27;20.00;;;0.50;99.90;;;;;;5119381;28;20486;-68
2024/01/16 04:13:57;;;;;;;25.20;17.30;;;0.50;99.90;;;;;;5119012;28;20462;-68
2024/01/16 04:16:24;;;;;;;25.20;16.50;;;0.50;99.90;;;;;;5118967;28;20456;-68
2024/01/16 04:18:51;;;;;;;25.00;17.00;;;0.40;99.90;;;;;;5119060;28;20578;-68
2024/01/16 04:21:18;;;;;;;24.30;17.10;;;0.40;99.90;;;;;;5118316;28;20816;-66
2024/01/16 04:23:46;;;;;;;24.23;18.07;;;0.50;99.90;;;;;;5117915;28;20893;-67
2024/01/16 04:26:13;;;;;;;23.37;19.10;;;0.40;99.90;;;;;;5117655;28;20830;-66
2024/01/16 04:28:41;;;;;;;25.47;18.67;;;0.40;99.90;;;;;;5118350;28;20870;-67
2024/01/16 04:31:08;;;;;;;29.07;17.77;;;0.50;99.90;;;;;;5116933;28;20781;-67
2024/01/16 04:33:35;;;;;;;21.40;17.10;;;0.40;99.90;;;;;;5116458;28;20535;-67
2024/01/16 04:36:02;;;;;;;22.73;16.90;;;0.30;99.90;;;;;;5115984;28;20901;-66
2024/01/16 04:38:29;;;;;;;22.33;18.20;;;0.30;99.90;;;;;;5116678;28;20491;-67
2024/01/16 04:40:56;;;;;;;25.27;17.10;;;0.30;99.90;;;;;;5116997;28;20877;-67
2024/01/16 04:43:25;;;;;;;23.23;17.13;;;0.40;99.90;;;;;;5115864;28;20459;-67
2024/01/16 04:45:52;;;;;;;19.80;16.67;;;0.30;99.90;;;;;;5118090;28;20440;-67
2024/01/16 04:48:19;;;;;;;23.80;16.67;;;0.40;99.90;;;;;;5118444;28;20794;-68
2024/01/16 04:50:46;;;;;;;16.83;14.67;;;0.40;99.90;;;;;;5115457;28;20429;-67
2024/01/16 04:53:13;;;;;;;17.50;14.30;;;0.40;99.90;;;;;;5117540;28;20896;-67
2024/01/16 04:55:41;;;;;;;21.00;14.40;;;0.40;99.90;;;;;;5117183;28;20473;-67
2024/01/16 04:58:08;;;;;;;18.37;13.90;;;0.40;99.90;;;;;;5117903;28;20538;-67
2024/01/16 05:00:37;;;;;;;20.47;12.33;;;0.40;99.90;;;;;;5117511;28;20527;-66
2024/01/16 05:03:05;;;;;;;15.50;11.63;;;0.40;99.90;;;;;;5117459;28;20565;-66
2024/01/16 05:05:33;;;;;;;19.43;13.40;;;0.40;99.90;;;;;;5118177;28;20460;-66
2024/01/16 05:08:03;;;;;;;17.43;13.43;;;0.40;99.90;;;;;;5117482;28;20483;-67
2024/01/16 05:10:30;;;;;;;20.93;13.20;;;0.40;99.90;;;;;;5117603;28;20444;-67
2024/01/16 05:12:57;;;;;;;15.83;12.97;;;0.40;99.90;;;;;;5118225;28;20480;-67
2024/01/16 05:15:26;;;;;;;18.70;12.10;;;0.30;99.90;;;;;;5118594;28;20455;-67
2024/01/16 05:17:54;;;;;;;19.10;13.10;;;0.30;99.90;;;;;;5117726;28;20986;-67
2024/01/16 05:20:22;;;;;;;21.40;13.17;;;0.40;99.90;;;;;;5117883;28;20932;-67
2024/01/16 05:22:49;;;;;;;16.97;13.60;;;0.30;99.90;;;;;;5118021;28;20433;-66
2024/01/16 05:25:18;;;;;;;16.23;13.97;;;0.40;99.90;;;;;;5118045;28;20433;-66
2024/01/16 05:27:45;;;;;;;19.00;13.17;;;0.30;99.90;;;;;;5118010;28;20459;-65
2024/01/16 05:30:13;;;;;;;17.57;12.37;;;0.30;99.90;;;;;;5118210;28;20462;-67
2024/01/16 05:32:41;;;;;;;16.77;11.97;;;0.40;99.90;;;;;;5117627;28;20428;-67
2024/01/16 05:35:10;;;;;;;15.30;11.70;;;0.40;99.90;;;;;;5118027;28;20511;-67
2024/01/16 05:37:37;;;;;;;15.53;11.43;;;0.40;99.90;;;;;;5117736;28;20468;-66
2024/01/16 05:40:07;;;;;;;16.37;12.23;;;0.40;99.90;;;;;;5117312;28;20434;-67
2024/01/16 05:42:34;;;;;;;14.07;11.07;;;0.30;99.90;;;;;;5117660;28;20460;-67
2024/01/16 05:45:02;;;;;;;14.57;12.17;;;0.40;99.90;;;;;;5117356;28;20434;-66
2024/01/16 05:47:30;;;;;;;16.17;11.87;;;0.30;99.90;;;;;;5117323;28;20536;-66
2024/01/16 05:49:57;;;;;;;16.53;11.93;;;0.40;99.90;;;;;;5117168;28;20448;-66
2024/01/16 05:52:26;;;;;;;16.80;11.20;;;0.30;99.90;;;;;;5117509;28;20796;-66
2024/01/16 05:54:57;;;;;;;20.00;12.23;;;0.30;99.90;;;;;;5117341;28;20552;-66
2024/01/16 05:57:24;;;;;;;18.13;11.90;;;0.40;99.90;;;;;;5117404;28;20458;-66
2024/01/16 05:59:51;;;;;;;16.70;13.77;;;0.40;99.90;;;;;;5117668;28;20433;-66
2024/01/16 06:02:19;;;;;;;16.80;13.53;;;0.30;99.90;;;;;;5116546;28;20473;-66
2024/01/16 06:04:46;;;;;;;18.70;15.23;;;0.40;99.90;;;;;;5117361;28;20469;-66
2024/01/16 06:07:13;;;;;;;22.03;15.30;;;0.40;99.90;;;;;;5117111;28;20512;-66
2024/01/16 06:09:42;;;;;;;20.47;15.30;;;0.40;99.90;;;;;;5117170;28;20518;-66
2024/01/16 06:12:09;;;;;;;21.90;15.27;;;0.40;99.90;;;;;;5116887;28;20486;-66
2024/01/16 06:14:37;;;;;;;19.70;14.87;;;0.40;99.90;;;;;;5117237;28;20480;-66
2024/01/16 06:17:05;;;;;;;20.67;14.13;;;0.40;99.90;;;;;;5117130;28;20549;-66
2024/01/16 06:19:33;;;;;;;23.70;15.63;;;0.50;99.90;;;;;;5117113;28;20507;-66
2024/01/16 06:22:00;;;;;;;19.93;14.10;;;0.50;99.90;;;;;;5117396;28;20462;-66
2024/01/16 06:24:27;;;;;;;19.77;15.10;;;0.50;99.90;;;;;;5116801;28;20469;-65
2024/01/16 06:26:56;;;;;;;19.13;15.50;;;0.50;99.90;;;;;;5116390;28;20517;-66
2024/01/16 06:29:23;;;;;;;19.17;16.10;;;0.50;99.90;;;;;;5117410;28;20939;-66
2024/01/16 06:31:50;;;;;;;20.70;15.63;;;0.50;99.90;;;;;;5117109;28;20570;-66
2024/01/16 06:34:18;;;;;;;21.87;14.83;;;0.50;99.90;;;;;;5117062;28;20441;-66
2024/01/16 06:36:45;;;;;;;20.33;15.30;;;0.60;99.90;;;;;;5117276;28;20473;-66
2024/01/16 06:39:13;;;;;;;21.00;14.13;;;0.50;99.90;;;;;;5117424;28;20579;-65
2024/01/16 06:41:41;;;;;;;26.27;16.33;;;0.50;99.90;;;;;;5118112;28;20853;-65
2024/01/16 06:44:10;;;;;;;26.63;15.80;;;0.50;99.90;;;;;;5118898;28;20467;-64
2024/01/16 06:46:37;;;;;;;23.80;16.80;;;0.40;99.90;;;;;;5119561;28;20427;-65
2024/01/16 06:49:04;;;;;;;20.33;15.93;;;0.30;99.90;;;;;;5118845;28;20497;-65
2024/01/16 06:51:31;;;;;;;23.17;17.00;;;0.30;99.90;;;;;;5118920;28;20907;-65
2024/01/16 06:53:59;;;;;;;22.63;17.00;;;0.30;99.90;;;;;;5118699;28;20456;-65
2024/01/16 06:56:26;;;;;;;21.70;14.47;;;0.30;99.90;;;;;;5118520;28;20501;-65
2024/01/16 06:58:53;;;;;;;21.83;14.43;;;0.30;99.90;;;;;;5123253;28;20483;-66
2024/01/16 07:01:22;;;;;;;21.83;16.07;;;0.20;99.90;;;;;;5122570;28;20455;-65
2024/01/16 07:03:49;;;;;;;21.90;13.93;;;0.20;99.90;;;;;;5122916;28;20455;-64
2024/01/16 07:06:16;;;;;;;17.93;13.20;;;0.20;99.90;;;;;;5122903;28;20433;-65
2024/01/16 07:08:44;;;;;;;20.80;12.60;;;0.20;99.90;;;;;;5121925;28;20478;-65
2024/01/16 07:11:13;;;;;;;19.03;13.90;;;0.10;99.90;;;;;;5123005;28;20425;-64
2024/01/16 07:13:40;;;;;;;21.87;12.90;;;0.10;99.90;;;;;;5122051;28;20437;-64
2024/01/16 07:16:10;;;;;;;22.50;13.43;;;0.10;99.90;;;;;;5121070;28;20853;-64
2024/01/16 07:18:39;;;;;;;20.97;12.53;;;0.10;99.90;;;;;;5121672;28;20518;-64
2024/01/16 07:21:17;;;;;;;33.93;21.57;;;0.10;99.90;;;;;;5122274;28;20785;-64
2024/01/16 07:23:44;;;;;;;24.40;15.60;;;0.20;99.90;;;;;;5123100;28;20486;-64
2024/01/16 07:26:11;;;;;;;27.37;16.97;;;0.20;99.90;;;;;;5122809;28;20539;-64
2024/01/16 07:28:39;;;;;;;19.47;14.10;;;0.20;99.90;;;;;;5122790;28;20464;-63
2024/01/16 07:31:06;;;;;;;20.23;11.90;;;0.20;99.90;;;;;;5124270;28;20437;-64
2024/01/16 07:33:34;;;;;;;19.40;11.23;;;0.20;99.90;;;;;;5124366;28;20909;-63
2024/01/16 07:36:02;;;;;;;23.07;10.73;;;0.10;99.90;;;;;;5123819;28;20459;-64
2024/01/16 07:38:30;;;;;;;21.63;10.20;;;0.10;99.90;;;;;;5123770;28;20826;-64
2024/01/16 07:40:57;;;;;;;15.00;8.97;;;0.10;99.90;;;;;;5126374;28;20439;-64
2024/01/16 07:43:25;;;;;;;17.23;8.97;;;0.10;99.90;;;;;;5125215;27;20707;-64
2024/01/16 07:45:52;;;;;;;16.93;9.20;;;0.10;99.90;;;;;;5123639;28;20458;-64
2024/01/16 07:48:19;;;;;;;15.30;9.10;;;0.10;99.90;;;;;;5122819;28;20454;-64
2024/01/16 07:50:47;;;;;;;16.57;8.27;;;0.10;99.90;;;;;;5123735;28;20895;-64
2024/01/16 07:53:16;;;;;;;15.97;7.90;;;0.10;99.90;;;;;;5123055;28;20487;-64
2024/01/16 07:55:44;;;;;;;18.00;8.37;;;0.10;99.90;;;;;;5123120;28;20460;-64
2024/01/16 07:58:12;;;;;;;16.33;7.70;;;0.00;99.90;;;;;;5124160;28;20457;-64
2024/01/16 08:00:41;;;;;;;17.37;7.83;;;0.00;99.90;;;;;;5122712;28;20436;-63
2024/01/16 08:03:11;;;;;;;13.87;7.80;;;-0.10;99.90;;;;;;5123738;28;20509;-64
2024/01/16 08:05:39;;;;;;;14.40;7.50;;;-0.10;99.90;;;;;;5122226;28;20912;-63
2024/01/16 08:08:10;;;;;;;16.07;8.00;;;0.00;99.90;;;;;;5121751;28;20494;-63
2024/01/16 08:10:42;;;;;;;13.40;6.83;;;0.00;99.90;;;;;;5122313;28;20532;-63
2024/01/16 08:13:09;;;;;;;14.60;7.13;;;0.00;99.90;;;;;;5122906;27;20469;-64
2024/01/16 08:15:37;;;;;;;11.40;7.37;;;0.00;99.90;;;;;;5123281;28;20437;-63
2024/01/16 08:18:05;;;;;;;13.07;6.33;;;0.00;99.90;;;;;;5122584;28;20462;-63
2024/01/16 08:20:32;;;;;;;12.77;5.90;;;0.00;99.90;;;;;;5122241;28;20457;-63
2024/01/16 08:23:00;;;;;;;9.80;6.00;;;0.00;99.90;;;;;;5126077;28;20448;-63
2024/01/16 08:25:28;;;;;;;11.90;6.13;;;0.10;99.90;;;;;;5125484;28;20490;-63
2024/01/16 08:27:56;;;;;;;12.97;6.27;;;0.10;99.90;;;;;;5124614;28;20473;-63
2024/01/16 08:30:24;;;;;;;16.73;5.87;;;0.10;99.90;;;;;;5124746;28;20456;-63
2024/01/16 08:32:51;;;;;;;11.80;5.73;;;0.10;99.90;;;;;;5124238;28;20553;-63
2024/01/16 08:35:18;;;;;;;11.40;5.23;;;0.10;99.90;;;;;;5123944;28;20433;-63
2024/01/16 08:37:46;;;;;;;16.33;6.20;;;0.10;99.90;;;;;;5121298;28;20454;-63
2024/01/16 08:40:13;;;;;;;16.37;6.00;;;0.20;99.90;;;;;;5121655;28;20466;-64
2024/01/16 08:42:41;;;;;;;9.07;5.37;;;0.20;99.90;;;;;;5120369;28;20457;-63
2024/01/16 08:45:10;;;;;;;9.93;5.20;;;0.20;99.90;;;;;;5120312;28;20456;-63
2024/01/16 08:47:37;;;;;;;9.50;5.27;;;0.20;99.90;;;;;;5120950;27;20459;-63
2024/01/16 08:50:05;;;;;;;19.27;5.43;;;0.20;99.90;;;;;;5121233;28;20879;-63
2024/01/16 08:52:33;;;;;;;17.40;5.80;;;0.20;99.90;;;;;;5119658;28;20458;-63
2024/01/16 08:55:00;;;;;;;9.27;4.37;;;0.10;99.90;;;;;;5120290;28;20895;-63
2024/01/16 08:57:28;;;;;;;11.83;5.63;;;0.20;99.90;;;;;;5120242;28;20472;-63
2024/01/16 08:59:55;;;;;;;7.67;5.00;;;0.20;99.90;;;;;;5119870;28;20494;-63
2024/01/16 09:02:24;;;;;;;9.03;4.73;;;0.20;99.90;;;;;;5120176;28;20906;-63
2024/01/16 09:04:51;;;;;;;8.70;4.53;;;0.30;99.90;;;;;;5121182;28;20476;-64
2024/01/16 09:07:19;;;;;;;10.57;4.87;;;0.20;99.90;;;;;;5120479;28;20469;-63
2024/01/16 09:09:46;;;;;;;9.37;5.40;;;0.20;99.90;;;;;;5119269;28;20518;-63
2024/01/16 09:12:14;;;;;;;11.20;4.80;;;0.20;99.90;;;;;;5120007;28;20463;-63
2024/01/16 09:14:43;;;;;;;15.40;5.47;;;0.20;99.90;;;;;;5119464;28;20910;-63
2024/01/16 09:17:10;;;;;;;12.63;5.00;;;0.20;99.90;;;;;;5119863;28;20437;-63
2024/01/16 09:19:39;;;;;;;12.03;4.93;;;0.20;99.90;;;;;;5119707;28;20487;-63
2024/01/16 09:22:06;;;;;;;6.37;4.30;;;0.10;99.90;;;;;;5118926;28;20821;-64
2024/01/16 09:24:34;;;;;;;8.60;5.13;;;0.10;99.90;;;;;;5119290;28;20470;-63
2024/01/16 09:27:06;;;;;;;8.83;4.43;;;0.10;99.90;;;;;;5119193;28;20516;-63
2024/01/16 09:29:33;;;;;;;9.50;4.37;;;0.20;99.90;;;;;;5117845;28;20500;-63
2024/01/16 09:32:01;;;;;;;17.47;5.60;;;0.20;99.90;;;;;;5118810;28;20463;-63
2024/01/16 09:34:28;;;;;;;13.30;4.87;;;0.20;99.90;;;;;;5118250;28;20903;-63
2024/01/16 09:37:00;;;;;;;8.90;3.63;;;0.20;99.90;;;;;;5118846;28;20466;-63
2024/01/16 09:39:30;;;;;;;9.73;4.40;;;0.20;1.00;;;;;;5118560;28;20466;-63
2024/01/16 09:42:00;;;;;;;10.53;5.30;;;0.20;99.90;;;;;;5116647;28;20695;-63
2024/01/16 09:44:29;;;;;;;15.13;5.03;;;0.30;99.90;;;;;;5115511;28;20478;-63
2024/01/16 09:46:59;;;;;;;9.53;4.97;;;0.20;1.00;;;;;;5117982;28;20516;-64
2024/01/16 09:49:26;;;;;;;9.90;5.00;;;0.30;1.00;;;;;;5116994;28;20459;-63
2024/01/16 09:51:54;;;;;;;11.30;4.53;;;0.40;1.00;;;;;;5116405;28;20463;-63
2024/01/16 09:54:23;;;;;;;12.57;5.03;;;0.30;99.90;;;;;;5116925;28;20442;-63
2024/01/16 09:56:54;;;;;;;8.80;4.23;;;0.30;99.90;;;;;;5116974;28;20477;-64
2024/01/16 09:59:23;;;;;;;6.87;4.20;;;0.30;40.20;;;;;;5117672;28;20916;-63
2024/01/16 10:01:52;;;;;;;14.97;4.60;;;0.30;16.50;;;;;;5115686;28;20457;-63
2024/01/16 10:04:20;;;;;;;7.40;3.90;;;0.30;1.00;;;;;;5114747;28;20733;-64
2024/01/16 10:06:49;;;;;;;9.97;4.90;;;0.30;1.00;;;;;;5116189;28;20554;-63
2024/01/16 10:09:17;;;;;;;9.23;4.17;;;0.30;1.00;;;;;;5113969;28;20862;-64
2024/01/16 10:11:46;;;;;;;12.87;5.57;;;0.30;1.00;;;;;;5113956;28;20437;-64
2024/01/16 10:14:14;;;;;;;8.93;5.47;;;0.30;1.00;;;;;;5114922;28;20482;-64
2024/01/16 10:16:59;;;;;;;10.33;5.37;;;0.30;1.00;;;;;;5113748;28;20790;-63
2024/01/16 10:19:28;;;;;;;12.50;5.17;;;0.30;1.00;;;;;;5099879;28;20537;-64
2024/01/16 10:22:02;;;;;;;13.50;5.27;;;0.40;1.00;;;;;;5094904;28;20469;-64
2024/01/16 10:24:30;;;;;;;15.60;5.90;;;0.40;1.00;;;;;;5097196;28;20533;-64
2024/01/16 10:27:02;;;;;;;10.17;5.30;;;0.50;1.00;;;;;;5097338;28;20453;-64
2024/01/16 10:29:31;;;;;;;8.13;5.30;;;0.50;1.00;;;;;;5097347;28;20484;-65
2024/01/16 10:31:59;;;;;;;8.40;5.00;;;0.50;1.00;;;;;;5096487;28;20491;-64
2024/01/16 10:34:26;;;;;;;11.10;5.20;;;0.50;90.40;;;;;;5099728;28;20795;-64
2024/01/16 10:37:00;;;;;;;8.77;4.53;;;0.60;87.20;;;;;;5099218;28;20511;-65
2024/01/16 10:39:27;;;;;;;13.13;5.33;;;0.50;1.00;;;;;;5098428;28;20502;-64
2024/01/16 10:42:00;;;;;;;9.57;5.20;;;0.60;1.00;;;;;;5098589;28;20456;-67
2024/01/16 10:44:28;;;;;;;9.60;5.30;;;0.60;1.00;;;;;;5098926;28;20951;-66
2024/01/16 10:47:12;;;;;;;14.77;4.90;;;0.80;1.00;;;;;;5099108;28;20459;-66
2024/01/16 10:49:39;;;;;;;6.77;5.47;;;0.90;1.00;;;;;;5099433;28;20858;-65
2024/01/16 10:52:12;;;;;;;11.90;6.10;;;1.00;1.00;;;;;;5099669;28;20456;-66
2024/01/16 10:54:44;;;;;;;13.63;5.43;;;1.00;1.00;;;;;;5100099;28;20464;-67
2024/01/16 10:57:14;;;;;;;25.37;7.40;;;1.00;1.00;;;;;;5100557;28;20503;-67
2024/01/16 10:59:50;;;;;;;12.40;5.73;;;0.90;1.00;;;;;;5100422;28;20582;-67
2024/01/16 11:02:21;;;;;;;11.87;5.70;;;1.10;1.00;;;;;;5100129;28;20532;-67
2024/01/16 11:04:51;;;;;;;17.70;7.23;;;1.00;1.00;;;;;;5100272;28;20550;-68
2024/01/16 11:07:22;;;;;;;12.63;5.73;;;0.90;1.00;;;;;;5100470;28;20460;-69
2024/01/16 11:09:50;;;;;;;16.20;7.63;;;1.00;1.00;;;;;;5099533;28;20507;-69
2024/01/16 11:12:22;;;;;;;12.00;6.27;;;1.20;1.00;;;;;;5099992;28;20527;-70
2024/01/16 11:14:52;;;;;;;14.07;6.70;;;1.10;1.00;;;;;;5100228;28;20888;-69
2024/01/16 11:17:21;;;;;;;13.30;6.70;;;1.20;1.00;;;;;;5099952;28;20435;-69
2024/01/16 11:19:49;;;;;;;11.43;5.37;;;1.30;1.00;;;;;;5101136;28;20554;-67
2024/01/16 11:22:18;;;;;;;13.07;5.30;;;1.30;1.00;;;;;;5104191;28;20464;-68
2024/01/16 11:24:46;;;;;;;10.27;5.20;;;1.30;99.90;;;;;;5100869;28;20456;-66
2024/01/16 11:27:24;;;;;;;12.87;5.27;;;1.00;99.90;;;;;;5100481;28;20952;-66
2024/01/16 11:29:52;;;;;;;8.73;5.60;;;1.20;99.90;;;;;;5099272;28;20435;-66
2024/01/16 11:32:36;;;;;;;10.40;5.33;;;1.30;99.90;;;;;;5099071;28;20487;-66
2024/01/16 11:35:05;;;;;;;10.63;5.87;;;1.30;99.90;;;;;;5104024;28;20528;-66
2024/01/16 11:37:34;;;;;;;8.60;4.80;;;1.30;99.90;;;;;;5118857;28;20471;-66
2024/01/16 11:40:25;;;;;;;10.90;5.50;;;1.30;99.90;;;;;;5120044;28;20582;-65
2024/01/16 11:42:55;;;;;;;10.53;6.20;;;1.20;99.90;;;;;;5120020;28;20459;-65
2024/01/16 11:45:51;;;;;;;12.77;5.33;;;1.40;99.90;;;;;;5120057;28;20455;-64
2024/01/16 11:48:19;;;;;;;6.20;4.70;;;1.40;99.90;;;;;;5083136;28;20459;-64
2024/01/16 11:50:47;;;;;;;9.67;4.80;;;1.20;99.90;;;;;;5119787;28;20460;-65
2024/01/16 11:53:38;;;;;;;7.93;5.00;;;1.20;99.90;;;;;;5116290;28;20562;-64
2024/01/16 11:56:30;;;;;;;13.73;6.43;;;1.10;99.90;;;;;;5117553;28;20498;-64
2024/01/16 11:59:15;;;;;;;14.00;6.77;;;1.10;99.90;;;;;;5118223;28;20452;-64
2024/01/16 12:01:46;;;;;;;11.83;6.57;;;1.10;99.90;;;;;;5118021;28;20455;-64
2024/01/16 12:04:18;;;;;;;11.80;6.03;;;1.30;99.90;;;;;;5117456;28;20498;-64
2024/01/16 12:06:57;;;;;;;13.20;5.87;;;1.40;99.90;;;;;;5117256;28;20765;-64
2024/01/16 12:09:28;;;;;;;11.10;5.70;;;1.20;99.90;;;;;;5117229;28;20445;-64
2024/01/16 12:11:58;;;;;;;13.67;6.37;;;1.30;99.90;;;;;;5117053;28;20538;-64
2024/01/16 12:14:27;;;;;;;11.67;6.30;;;1.20;99.90;;;;;;5116913;27;20481;-64
2024/01/16 12:17:10;;;;;;;12.40;6.07;;;1.30;99.90;;;;;;5117059;28;20426;-63
2024/01/16 12:19:40;;;;;;;12.70;6.30;;;1.30;99.90;;;;;;5117912;28;20483;-63
2024/01/16 12:22:10;;;;;;;14.07;7.70;;;1.40;99.90;;;;;;5119516;28;20769;-63
2024/01/16 12:24:38;;;;;;;12.70;8.30;;;1.40;99.90;;;;;;5119172;28;20430;-63
2024/01/16 12:27:06;;;;;;;14.27;6.63;;;1.30;99.90;;;;;;5119393;28;20459;-63
2024/01/16 12:29:35;;;;;;;12.40;7.50;;;1.30;99.90;;;;;;5119057;28;20540;-63
2024/01/16 12:32:10;;;;;;;12.47;7.37;;;1.10;99.90;;;;;;5118546;28;20460;-63
2024/01/16 12:34:46;;;;;;;12.90;6.90;;;1.00;99.90;;;;;;5118348;28;20459;-64
2024/01/16 12:37:14;;;;;;;12.10;6.63;;;1.10;99.90;;;;;;5119144;28;20546;-64
2024/01/16 12:39:41;;;;;;;11.17;5.80;;;1.10;99.90;;;;;;5119030;28;20504;-62
2024/01/16 12:42:11;;;;;;;13.93;7.53;;;1.20;99.90;;;;;;5117511;28;20881;-62
2024/01/16 12:44:40;;;;;;;12.13;6.83;;;1.50;99.90;;;;;;5118219;28;20466;-61
2024/01/16 12:47:07;;;;;;;18.23;8.03;;;1.70;99.90;;;;;;5118094;28;20913;-61
2024/01/16 12:49:42;;;;;;;10.63;7.43;;;1.80;99.90;;;;;;5118751;28;20540;-61
2024/01/16 12:52:20;;;;;;;13.27;6.60;;;1.80;99.90;;;;;;5118082;28;20459;-61